sensor_id;sensor_type;location;lat;lon;timestamp;temperature;humidity
74178;DHT22;62540;48.456;-4.456;2024-01-30T00:02:16;11.56;75.37
74178;DHT22;62540;48.456;-4.456;2024-01-30T00:04:42;11.55;75.04
74178;DHT22;62540;48.456;-4.456;2024-01-30T00:07:07;11.52;75.13
74178;DHT22;62540;48.456;-4.456;2024-01-30T00:09:32;11.51;75.01
74178;DHT22;62540;48.456;-4.456;2024-01-30T00:11:58;11.47;75.09
74178;DHT22;62540;48.456;-4.456;2024-01-30T00:14:23;11.46;75.04
74178;DHT22;62540;48.456;-4.456;2024-01-30T00:16:50;11.46;74.96
74178;DHT22;62540;48.456;-4.456;2024-01-30T00:19:15;11.43;74.90
74178;DHT22;62540;48.456;-4.456;2024-01-30T00:21:41;11.42;74.91
74178;DHT22;62540;48.456;-4.456;2024-01-30T00:24:06;11.38;74.73
74178;DHT22;62540;48.456;-4.456;2024-01-30T00:26:32;11.34;74.92
74178;DHT22;62540;48.456;-4.456;2024-01-30T00:28:57;11.32;75.04
74178;DHT22;62540;48.456;-4.456;2024-01-30T00:31:23;11.31;74.90
74178;DHT22;62540;48.456;-4.456;2024-01-30T00:33:48;11.34;74.85
74178;DHT22;62540;48.456;-4.456;2024-01-30T00:36:13;11.32;74.70
74178;DHT22;62540;48.456;-4.456;2024-01-30T00:38:39;11.31;74.62
74178;DHT22;62540;48.456;-4.456;2024-01-30T00:41:08;11.32;74.63
74178;DHT22;62540;48.456;-4.456;2024-01-30T00:43:33;11.31;74.44
74178;DHT22;62540;48.456;-4.456;2024-01-30T00:45:59;11.29;74.31
74178;DHT22;62540;48.456;-4.456;2024-01-30T00:48:24;11.31;74.40
74178;DHT22;62540;48.456;-4.456;2024-01-30T00:50:50;11.29;74.40
74178;DHT22;62540;48.456;-4.456;2024-01-30T00:53:15;11.26;74.57
74178;DHT22;62540;48.456;-4.456;2024-01-30T00:55:40;11.28;74.77
74178;DHT22;62540;48.456;-4.456;2024-01-30T00:58:06;11.34;74.76
74178;DHT22;62540;48.456;-4.456;2024-01-30T01:00:32;11.34;74.72
74178;DHT22;62540;48.456;-4.456;2024-01-30T01:02:58;11.35;74.65
74178;DHT22;62540;48.456;-4.456;2024-01-30T01:05:24;11.34;74.60
74178;DHT22;62540;48.456;-4.456;2024-01-30T01:07:49;11.36;74.55
74178;DHT22;62540;48.456;-4.456;2024-01-30T01:10:16;11.35;74.57
74178;DHT22;62540;48.456;-4.456;2024-01-30T01:12:42;11.31;74.52
74178;DHT22;62540;48.456;-4.456;2024-01-30T01:15:08;11.34;74.49
74178;DHT22;62540;48.456;-4.456;2024-01-30T01:17:39;11.34;74.33
74178;DHT22;62540;48.456;-4.456;2024-01-30T01:20:06;11.29;74.22
74178;DHT22;62540;48.456;-4.456;2024-01-30T01:22:32;11.25;74.14
74178;DHT22;62540;48.456;-4.456;2024-01-30T01:25:01;11.19;74.04
74178;DHT22;62540;48.456;-4.456;2024-01-30T01:27:27;11.15;74.25
74178;DHT22;62540;48.456;-4.456;2024-01-30T01:29:53;11.18;74.46
74178;DHT22;62540;48.456;-4.456;2024-01-30T01:32:19;11.18;74.63
74178;DHT22;62540;48.456;-4.456;2024-01-30T01:34:44;11.15;74.69
74178;DHT22;62540;48.456;-4.456;2024-01-30T01:37:10;11.16;74.76
74178;DHT22;62540;48.456;-4.456;2024-01-30T01:39:35;11.15;74.96
74178;DHT22;62540;48.456;-4.456;2024-01-30T01:42:01;11.14;75.17
74178;DHT22;62540;48.456;-4.456;2024-01-30T01:44:27;11.15;75.31
74178;DHT22;62540;48.456;-4.456;2024-01-30T01:46:54;11.15;75.33
74178;DHT22;62540;48.456;-4.456;2024-01-30T01:49:20;11.14;75.34
74178;DHT22;62540;48.456;-4.456;2024-01-30T01:51:47;11.19;75.48
74178;DHT22;62540;48.456;-4.456;2024-01-30T01:54:14;11.21;75.46
74178;DHT22;62540;48.456;-4.456;2024-01-30T01:56:42;11.26;75.42
74178;DHT22;62540;48.456;-4.456;2024-01-30T01:59:08;11.22;75.38
74178;DHT22;62540;48.456;-4.456;2024-01-30T02:01:37;11.25;75.47
74178;DHT22;62540;48.456;-4.456;2024-01-30T02:04:02;11.26;75.42
74178;DHT22;62540;48.456;-4.456;2024-01-30T02:06:28;11.31;75.32
74178;DHT22;62540;48.456;-4.456;2024-01-30T02:08:54;11.32;75.21
74178;DHT22;62540;48.456;-4.456;2024-01-30T02:11:20;11.29;75.02
74178;DHT22;62540;48.456;-4.456;2024-01-30T02:13:47;11.26;75.11
74178;DHT22;62540;48.456;-4.456;2024-01-30T02:16:12;11.28;75.12
74178;DHT22;62540;48.456;-4.456;2024-01-30T02:18:37;11.28;75.08
74178;DHT22;62540;48.456;-4.456;2024-01-30T02:21:07;11.28;75.00
74178;DHT22;62540;48.456;-4.456;2024-01-30T02:23:33;11.25;75.05
74178;DHT22;62540;48.456;-4.456;2024-01-30T02:25:59;11.26;74.96
74178;DHT22;62540;48.456;-4.456;2024-01-30T02:28:25;11.28;74.97
74178;DHT22;62540;48.456;-4.456;2024-01-30T02:30:51;11.31;74.93
74178;DHT22;62540;48.456;-4.456;2024-01-30T02:33:16;11.31;74.80
74178;DHT22;62540;48.456;-4.456;2024-01-30T02:35:42;11.28;74.74
74178;DHT22;62540;48.456;-4.456;2024-01-30T02:38:07;11.26;74.81
74178;DHT22;62540;48.456;-4.456;2024-01-30T02:40:32;11.28;74.87
74178;DHT22;62540;48.456;-4.456;2024-01-30T02:42:59;11.26;74.93
74178;DHT22;62540;48.456;-4.456;2024-01-30T02:45:25;11.28;74.97
74178;DHT22;62540;48.456;-4.456;2024-01-30T02:47:50;11.28;74.94
74178;DHT22;62540;48.456;-4.456;2024-01-30T02:50:16;11.25;74.97
74178;DHT22;62540;48.456;-4.456;2024-01-30T02:52:41;11.25;74.94
74178;DHT22;62540;48.456;-4.456;2024-01-30T02:55:09;11.21;74.84
74178;DHT22;62540;48.456;-4.456;2024-01-30T02:57:34;11.18;74.85
74178;DHT22;62540;48.456;-4.456;2024-01-30T03:00:00;11.15;74.87
74178;DHT22;62540;48.456;-4.456;2024-01-30T03:02:25;11.11;74.88
74178;DHT22;62540;48.456;-4.456;2024-01-30T03:04:51;11.15;74.86
74178;DHT22;62540;48.456;-4.456;2024-01-30T03:07:16;11.11;74.80
74178;DHT22;62540;48.456;-4.456;2024-01-30T03:09:42;11.08;74.78
74178;DHT22;62540;48.456;-4.456;2024-01-30T03:12:09;11.08;74.85
74178;DHT22;62540;48.456;-4.456;2024-01-30T03:14:34;11.11;74.87
74178;DHT22;62540;48.456;-4.456;2024-01-30T03:17:00;11.10;74.91
74178;DHT22;62540;48.456;-4.456;2024-01-30T03:19:25;11.11;74.90
74178;DHT22;62540;48.456;-4.456;2024-01-30T03:21:50;11.08;74.96
74178;DHT22;62540;48.456;-4.456;2024-01-30T03:24:16;11.08;75.05
74178;DHT22;62540;48.456;-4.456;2024-01-30T03:26:42;11.08;75.14
74178;DHT22;62540;48.456;-4.456;2024-01-30T03:29:07;11.07;75.14
74178;DHT22;62540;48.456;-4.456;2024-01-30T03:31:34;11.08;75.16
74178;DHT22;62540;48.456;-4.456;2024-01-30T03:33:59;11.11;75.21
74178;DHT22;62540;48.456;-4.456;2024-01-30T03:36:25;11.10;75.30
74178;DHT22;62540;48.456;-4.456;2024-01-30T03:38:51;11.11;75.38
74178;DHT22;62540;48.456;-4.456;2024-01-30T03:41:16;11.12;75.34
74178;DHT22;62540;48.456;-4.456;2024-01-30T03:43:41;11.15;75.42
74178;DHT22;62540;48.456;-4.456;2024-01-30T03:46:07;11.18;75.42
74178;DHT22;62540;48.456;-4.456;2024-01-30T03:48:32;11.21;75.45
74178;DHT22;62540;48.456;-4.456;2024-01-30T03:50:58;11.21;75.46
74178;DHT22;62540;48.456;-4.456;2024-01-30T03:53:23;11.22;75.49
74178;DHT22;62540;48.456;-4.456;2024-01-30T03:55:49;11.21;75.49
74178;DHT22;62540;48.456;-4.456;2024-01-30T03:58:14;11.24;75.52
74178;DHT22;62540;48.456;-4.456;2024-01-30T04:00:39;11.25;75.57
74178;DHT22;62540;48.456;-4.456;2024-01-30T04:03:06;11.24;75.54
74178;DHT22;62540;48.456;-4.456;2024-01-30T04:05:32;11.26;75.54
74178;DHT22;62540;48.456;-4.456;2024-01-30T04:07:57;11.19;75.53
74178;DHT22;62540;48.456;-4.456;2024-01-30T04:10:23;11.15;75.68
74178;DHT22;62540;48.456;-4.456;2024-01-30T04:12:50;11.12;75.84
74178;DHT22;62540;48.456;-4.456;2024-01-30T04:15:15;11.14;75.90
74178;DHT22;62540;48.456;-4.456;2024-01-30T04:17:41;11.16;75.95
74178;DHT22;62540;48.456;-4.456;2024-01-30T04:20:07;11.19;75.99
74178;DHT22;62540;48.456;-4.456;2024-01-30T04:22:32;11.22;75.96
74178;DHT22;62540;48.456;-4.456;2024-01-30T04:24:58;11.26;75.90
74178;DHT22;62540;48.456;-4.456;2024-01-30T04:27:23;11.24;75.87
74178;DHT22;62540;48.456;-4.456;2024-01-30T04:29:49;11.26;75.86
74178;DHT22;62540;48.456;-4.456;2024-01-30T04:32:14;11.24;75.87
74178;DHT22;62540;48.456;-4.456;2024-01-30T04:34:39;11.28;75.85
74178;DHT22;62540;48.456;-4.456;2024-01-30T04:37:05;11.25;75.86
74178;DHT22;62540;48.456;-4.456;2024-01-30T04:39:32;11.28;75.85
74178;DHT22;62540;48.456;-4.456;2024-01-30T04:41:58;11.29;75.90
74178;DHT22;62540;48.456;-4.456;2024-01-30T04:44:24;11.29;75.81
74178;DHT22;62540;48.456;-4.456;2024-01-30T04:46:49;11.28;75.77
74178;DHT22;62540;48.456;-4.456;2024-01-30T04:49:15;11.28;75.86
74178;DHT22;62540;48.456;-4.456;2024-01-30T04:51:40;11.26;75.91
74178;DHT22;62540;48.456;-4.456;2024-01-30T04:54:05;11.28;75.84
74178;DHT22;62540;48.456;-4.456;2024-01-30T04:56:31;11.28;75.86
74178;DHT22;62540;48.456;-4.456;2024-01-30T04:58:56;11.28;75.87
74178;DHT22;62540;48.456;-4.456;2024-01-30T05:01:22;11.19;75.70
74178;DHT22;62540;48.456;-4.456;2024-01-30T05:03:47;11.12;75.93
74178;DHT22;62540;48.456;-4.456;2024-01-30T05:06:12;11.07;76.08
74178;DHT22;62540;48.456;-4.456;2024-01-30T05:08:38;11.04;76.20
74178;DHT22;62540;48.456;-4.456;2024-01-30T05:11:05;11.07;76.30
74178;DHT22;62540;48.456;-4.456;2024-01-30T05:13:31;11.08;76.24
74178;DHT22;62540;48.456;-4.456;2024-01-30T05:15:56;11.14;76.19
74178;DHT22;62540;48.456;-4.456;2024-01-30T05:18:21;11.18;76.08
74178;DHT22;62540;48.456;-4.456;2024-01-30T05:20:47;11.21;75.92
74178;DHT22;62540;48.456;-4.456;2024-01-30T05:23:12;11.21;75.80
74178;DHT22;62540;48.456;-4.456;2024-01-30T05:25:38;11.24;75.76
74178;DHT22;62540;48.456;-4.456;2024-01-30T05:28:03;11.24;75.75
74178;DHT22;62540;48.456;-4.456;2024-01-30T05:30:29;11.26;75.71
74178;DHT22;62540;48.456;-4.456;2024-01-30T05:32:54;11.29;75.68
74178;DHT22;62540;48.456;-4.456;2024-01-30T05:35:19;11.29;75.57
74178;DHT22;62540;48.456;-4.456;2024-01-30T05:37:50;11.29;75.44
74178;DHT22;62540;48.456;-4.456;2024-01-30T05:40:16;11.32;75.45
74178;DHT22;62540;48.456;-4.456;2024-01-30T05:42:41;11.35;75.35
74178;DHT22;62540;48.456;-4.456;2024-01-30T05:45:07;11.31;75.10
74178;DHT22;62540;48.456;-4.456;2024-01-30T05:47:33;11.29;75.13
74178;DHT22;62540;48.456;-4.456;2024-01-30T05:49:59;11.26;74.93
74178;DHT22;62540;48.456;-4.456;2024-01-30T05:52:24;11.25;75.00
74178;DHT22;62540;48.456;-4.456;2024-01-30T05:54:50;11.22;75.02
74178;DHT22;62540;48.456;-4.456;2024-01-30T05:57:15;11.22;75.12
74178;DHT22;62540;48.456;-4.456;2024-01-30T05:59:41;11.19;75.18
74178;DHT22;62540;48.456;-4.456;2024-01-30T06:02:06;11.19;75.18
74178;DHT22;62540;48.456;-4.456;2024-01-30T06:04:31;11.18;75.27
74178;DHT22;62540;48.456;-4.456;2024-01-30T06:06:57;11.16;75.33
74178;DHT22;62540;48.456;-4.456;2024-01-30T06:09:22;11.16;75.42
74178;DHT22;62540;48.456;-4.456;2024-01-30T06:11:48;11.18;75.51
74178;DHT22;62540;48.456;-4.456;2024-01-30T06:14:13;11.18;75.48
74178;DHT22;62540;48.456;-4.456;2024-01-30T06:16:38;11.19;75.47
74178;DHT22;62540;48.456;-4.456;2024-01-30T06:19:04;11.18;75.52
74178;DHT22;62540;48.456;-4.456;2024-01-30T06:21:29;11.19;75.61
74178;DHT22;62540;48.456;-4.456;2024-01-30T06:23:55;11.18;75.49
74178;DHT22;62540;48.456;-4.456;2024-01-30T06:26:21;11.22;75.58
74178;DHT22;62540;48.456;-4.456;2024-01-30T06:28:46;11.19;75.55
74178;DHT22;62540;48.456;-4.456;2024-01-30T06:31:12;11.21;75.48
74178;DHT22;62540;48.456;-4.456;2024-01-30T06:33:37;11.19;75.58
74178;DHT22;62540;48.456;-4.456;2024-01-30T06:36:03;11.21;75.50
74178;DHT22;62540;48.456;-4.456;2024-01-30T06:38:28;11.21;75.42
74178;DHT22;62540;48.456;-4.456;2024-01-30T06:40:53;11.21;75.24
74178;DHT22;62540;48.456;-4.456;2024-01-30T06:43:19;11.22;75.33
74178;DHT22;62540;48.456;-4.456;2024-01-30T06:45:44;11.22;75.38
74178;DHT22;62540;48.456;-4.456;2024-01-30T06:48:10;11.22;75.39
74178;DHT22;62540;48.456;-4.456;2024-01-30T06:50:35;11.21;75.41
74178;DHT22;62540;48.456;-4.456;2024-01-30T06:53:00;11.24;75.41
74178;DHT22;62540;48.456;-4.456;2024-01-30T06:55:26;11.28;75.40
74178;DHT22;62540;48.456;-4.456;2024-01-30T06:57:51;11.26;75.38
74178;DHT22;62540;48.456;-4.456;2024-01-30T07:00:17;11.25;75.37
74178;DHT22;62540;48.456;-4.456;2024-01-30T07:02:44;11.22;75.41
74178;DHT22;62540;48.456;-4.456;2024-01-30T07:05:10;11.21;75.42
74178;DHT22;62540;48.456;-4.456;2024-01-30T07:07:35;11.21;75.45
74178;DHT22;62540;48.456;-4.456;2024-01-30T07:10:00;11.24;75.47
74178;DHT22;62540;48.456;-4.456;2024-01-30T07:12:26;11.25;75.41
74178;DHT22;62540;48.456;-4.456;2024-01-30T07:14:52;11.26;75.45
74178;DHT22;62540;48.456;-4.456;2024-01-30T07:17:17;11.28;75.38
74178;DHT22;62540;48.456;-4.456;2024-01-30T07:19:43;11.25;75.40
74178;DHT22;62540;48.456;-4.456;2024-01-30T07:22:08;11.29;75.37
74178;DHT22;62540;48.456;-4.456;2024-01-30T07:24:34;11.26;75.37
74178;DHT22;62540;48.456;-4.456;2024-01-30T07:26:59;11.31;75.30
74178;DHT22;62540;48.456;-4.456;2024-01-30T07:29:24;11.32;75.21
74178;DHT22;62540;48.456;-4.456;2024-01-30T07:31:50;11.28;75.13
74178;DHT22;62540;48.456;-4.456;2024-01-30T07:34:15;11.29;75.19
74178;DHT22;62540;48.456;-4.456;2024-01-30T07:36:41;11.31;75.02
74178;DHT22;62540;48.456;-4.456;2024-01-30T07:39:06;11.25;74.74
74178;DHT22;62540;48.456;-4.456;2024-01-30T07:41:32;11.21;74.43
74178;DHT22;62540;48.456;-4.456;2024-01-30T07:43:57;11.19;74.80
74178;DHT22;62540;48.456;-4.456;2024-01-30T07:46:23;11.22;74.80
74178;DHT22;62540;48.456;-4.456;2024-01-30T07:48:48;11.25;74.68
74178;DHT22;62540;48.456;-4.456;2024-01-30T07:51:14;11.24;74.62
74178;DHT22;62540;48.456;-4.456;2024-01-30T07:53:41;11.24;74.59
74178;DHT22;62540;48.456;-4.456;2024-01-30T07:56:07;11.25;74.59
74178;DHT22;62540;48.456;-4.456;2024-01-30T07:58:32;11.28;74.56
74178;DHT22;62540;48.456;-4.456;2024-01-30T08:00:58;11.24;74.48
74178;DHT22;62540;48.456;-4.456;2024-01-30T08:03:23;11.26;74.45
74178;DHT22;62540;48.456;-4.456;2024-01-30T08:05:49;11.29;74.43
74178;DHT22;62540;48.456;-4.456;2024-01-30T08:08:15;11.29;74.38
74178;DHT22;62540;48.456;-4.456;2024-01-30T08:10:40;11.29;74.39
74178;DHT22;62540;48.456;-4.456;2024-01-30T08:13:05;11.32;74.31
74178;DHT22;62540;48.456;-4.456;2024-01-30T08:15:31;11.32;74.33
74178;DHT22;62540;48.456;-4.456;2024-01-30T08:17:57;11.38;74.39
74178;DHT22;62540;48.456;-4.456;2024-01-30T08:20:24;11.38;74.22
74178;DHT22;62540;48.456;-4.456;2024-01-30T08:22:50;11.39;74.08
74178;DHT22;62540;48.456;-4.456;2024-01-30T08:25:16;11.39;73.97
74178;DHT22;62540;48.456;-4.456;2024-01-30T08:27:41;11.38;74.04
74178;DHT22;62540;48.456;-4.456;2024-01-30T08:30:07;11.36;74.16
74178;DHT22;62540;48.456;-4.456;2024-01-30T08:32:32;11.38;74.21
74178;DHT22;62540;48.456;-4.456;2024-01-30T08:34:58;11.38;74.11
74178;DHT22;62540;48.456;-4.456;2024-01-30T08:37:24;11.36;73.91
74178;DHT22;62540;48.456;-4.456;2024-01-30T08:39:49;11.34;73.51
74178;DHT22;62540;48.456;-4.456;2024-01-30T08:42:14;11.32;73.62
74178;DHT22;62540;48.456;-4.456;2024-01-30T08:44:41;11.31;73.77
74178;DHT22;62540;48.456;-4.456;2024-01-30T08:47:06;11.36;73.83
74178;DHT22;62540;48.456;-4.456;2024-01-30T08:49:31;11.38;73.79
74178;DHT22;62540;48.456;-4.456;2024-01-30T08:51:57;11.40;73.78
74178;DHT22;62540;48.456;-4.456;2024-01-30T08:54:23;11.45;73.72
74178;DHT22;62540;48.456;-4.456;2024-01-30T08:56:49;11.51;73.70
74178;DHT22;62540;48.456;-4.456;2024-01-30T08:59:14;11.55;73.76
74178;DHT22;62540;48.456;-4.456;2024-01-30T09:01:40;11.55;73.68
74178;DHT22;62540;48.456;-4.456;2024-01-30T09:04:05;11.52;73.60
74178;DHT22;62540;48.456;-4.456;2024-01-30T09:06:31;11.53;73.83
74178;DHT22;62540;48.456;-4.456;2024-01-30T09:08:57;11.56;73.93
74178;DHT22;62540;48.456;-4.456;2024-01-30T09:11:23;11.61;74.20
74178;DHT22;62540;48.456;-4.456;2024-01-30T09:13:49;11.70;74.16
74178;DHT22;62540;48.456;-4.456;2024-01-30T09:16:14;11.79;74.11
74178;DHT22;62540;48.456;-4.456;2024-01-30T09:18:41;11.84;73.90
74178;DHT22;62540;48.456;-4.456;2024-01-30T09:21:06;11.86;73.71
74178;DHT22;62540;48.456;-4.456;2024-01-30T09:23:32;11.89;73.43
74178;DHT22;62540;48.456;-4.456;2024-01-30T09:25:58;11.89;73.60
74178;DHT22;62540;48.456;-4.456;2024-01-30T09:28:24;11.94;73.74
74178;DHT22;62540;48.456;-4.456;2024-01-30T09:30:49;12.00;73.68
74178;DHT22;62540;48.456;-4.456;2024-01-30T09:33:15;12.08;73.44
74178;DHT22;62540;48.456;-4.456;2024-01-30T09:35:40;12.13;73.25
74178;DHT22;62540;48.456;-4.456;2024-01-30T09:38:06;12.13;73.08
74178;DHT22;62540;48.456;-4.456;2024-01-30T09:40:31;12.08;73.15
74178;DHT22;62540;48.456;-4.456;2024-01-30T09:42:58;12.17;73.55
74178;DHT22;62540;48.456;-4.456;2024-01-30T09:45:26;12.25;73.51
74178;DHT22;62540;48.456;-4.456;2024-01-30T09:47:52;12.35;73.50
74178;DHT22;62540;48.456;-4.456;2024-01-30T09:50:18;12.44;73.44
74178;DHT22;62540;48.456;-4.456;2024-01-30T09:52:44;12.52;73.31
74178;DHT22;62540;48.456;-4.456;2024-01-30T09:55:11;12.65;73.23
74178;DHT22;62540;48.456;-4.456;2024-01-30T09:57:37;12.71;73.03
74178;DHT22;62540;48.456;-4.456;2024-01-30T10:00:06;12.76;72.71
74178;DHT22;62540;48.456;-4.456;2024-01-30T10:02:35;12.79;72.02
74178;DHT22;62540;48.456;-4.456;2024-01-30T10:05:01;12.76;71.66
74178;DHT22;62540;48.456;-4.456;2024-01-30T10:07:27;12.72;71.29
74178;DHT22;62540;48.456;-4.456;2024-01-30T10:09:53;12.69;71.00
74178;DHT22;62540;48.456;-4.456;2024-01-30T10:12:19;12.73;71.20
74178;DHT22;62540;48.456;-4.456;2024-01-30T10:14:44;12.78;71.59
74178;DHT22;62540;48.456;-4.456;2024-01-30T10:17:12;12.86;72.06
74178;DHT22;62540;48.456;-4.456;2024-01-30T10:19:39;12.96;70.94
74178;DHT22;62540;48.456;-4.456;2024-01-30T10:22:04;13.03;70.28
74178;DHT22;62540;48.456;-4.456;2024-01-30T10:24:30;13.06;69.00
74178;DHT22;62540;48.456;-4.456;2024-01-30T10:26:56;13.13;69.88
74178;DHT22;62540;48.456;-4.456;2024-01-30T10:29:22;13.19;69.44
74178;DHT22;62540;48.456;-4.456;2024-01-30T10:32:04;13.30;69.30
74178;DHT22;62540;48.456;-4.456;2024-01-30T10:34:30;13.31;68.26
74178;DHT22;62540;48.456;-4.456;2024-01-30T10:37:09;13.37;68.67
74178;DHT22;62540;48.456;-4.456;2024-01-30T10:39:42;13.44;68.29
74178;DHT22;62540;48.456;-4.456;2024-01-30T10:42:12;13.47;67.59
74178;DHT22;62540;48.456;-4.456;2024-01-30T10:45:16;13.44;66.33
74178;DHT22;62540;48.456;-4.456;2024-01-30T10:47:49;13.44;66.34
74178;DHT22;62540;48.456;-4.456;2024-01-30T10:50:15;13.39;66.24
74178;DHT22;62540;48.456;-4.456;2024-01-30T10:52:41;13.48;67.39
74178;DHT22;62540;48.456;-4.456;2024-01-30T10:55:07;13.57;66.03
74178;DHT22;62540;48.456;-4.456;2024-01-30T10:57:37;13.64;66.49
74178;DHT22;62540;48.456;-4.456;2024-01-30T11:00:10;13.74;66.36
74178;DHT22;62540;48.456;-4.456;2024-01-30T11:02:39;13.79;66.01
74178;DHT22;62540;48.456;-4.456;2024-01-30T11:05:05;13.85;66.11
74178;DHT22;62540;48.456;-4.456;2024-01-30T11:07:31;13.92;64.99
74178;DHT22;62540;48.456;-4.456;2024-01-30T11:10:04;13.94;65.06
74178;DHT22;62540;48.456;-4.456;2024-01-30T11:12:31;13.98;65.11
74178;DHT22;62540;48.456;-4.456;2024-01-30T11:20:30;14.09;64.82
74178;DHT22;62540;48.456;-4.456;2024-01-30T11:23:01;14.13;64.16
74178;DHT22;62540;48.456;-4.456;2024-01-30T11:25:31;14.09;63.85
74178;DHT22;62540;48.456;-4.456;2024-01-30T11:27:57;14.12;64.20
74178;DHT22;62540;48.456;-4.456;2024-01-30T11:30:26;14.13;64.27
74178;DHT22;62540;48.456;-4.456;2024-01-30T11:32:59;14.16;64.35
74178;DHT22;62540;48.456;-4.456;2024-01-30T11:35:25;14.20;64.28
74178;DHT22;62540;48.456;-4.456;2024-01-30T11:37:50;14.22;63.92
74178;DHT22;62540;48.456;-4.456;2024-01-30T11:40:16;14.32;64.02
74178;DHT22;62540;48.456;-4.456;2024-01-30T11:42:42;14.27;63.80
74178;DHT22;62540;48.456;-4.456;2024-01-30T11:45:08;14.25;63.24
74178;DHT22;62540;48.456;-4.456;2024-01-30T11:47:36;14.27;63.72
74178;DHT22;62540;48.456;-4.456;2024-01-30T11:50:02;14.29;63.17
74178;DHT22;62540;48.456;-4.456;2024-01-30T11:52:29;14.29;62.77
74178;DHT22;62540;48.456;-4.456;2024-01-30T11:54:54;14.23;63.27
74178;DHT22;62540;48.456;-4.456;2024-01-30T11:57:19;14.30;62.83
74178;DHT22;62540;48.456;-4.456;2024-01-30T11:59:45;14.29;63.05
74178;DHT22;62540;48.456;-4.456;2024-01-30T12:02:15;14.33;63.07
74178;DHT22;62540;48.456;-4.456;2024-01-30T12:04:41;14.29;62.02
74178;DHT22;62540;48.456;-4.456;2024-01-30T12:07:06;14.26;63.14
74178;DHT22;62540;48.456;-4.456;2024-01-30T12:09:32;14.23;63.01
74178;DHT22;62540;48.456;-4.456;2024-01-30T12:11:57;14.25;63.02
74178;DHT22;62540;48.456;-4.456;2024-01-30T12:14:23;14.18;63.27
74178;DHT22;62540;48.456;-4.456;2024-01-30T12:16:50;14.20;63.32
74178;DHT22;62540;48.456;-4.456;2024-01-30T12:19:22;14.20;63.39
74178;DHT22;62540;48.456;-4.456;2024-01-30T12:21:54;14.16;62.01
74178;DHT22;62540;48.456;-4.456;2024-01-30T12:24:19;14.12;63.65
74178;DHT22;62540;48.456;-4.456;2024-01-30T12:26:45;14.06;63.16
74178;DHT22;62540;48.456;-4.456;2024-01-30T12:29:10;14.02;62.08
74178;DHT22;62540;48.456;-4.456;2024-01-30T12:31:36;14.08;63.50
74178;DHT22;62540;48.456;-4.456;2024-01-30T12:34:01;14.13;63.37
74178;DHT22;62540;48.456;-4.456;2024-01-30T12:36:28;14.18;63.67
74178;DHT22;62540;48.456;-4.456;2024-01-30T12:38:55;14.18;63.69
74178;DHT22;62540;48.456;-4.456;2024-01-30T12:41:21;14.23;63.43
74178;DHT22;62540;48.456;-4.456;2024-01-30T12:43:47;14.30;63.60
74178;DHT22;62540;48.456;-4.456;2024-01-30T12:46:13;14.43;63.39
74178;DHT22;62540;48.456;-4.456;2024-01-30T12:48:38;14.50;63.19
74178;DHT22;62540;48.456;-4.456;2024-01-30T12:51:04;14.57;63.33
74178;DHT22;62540;48.456;-4.456;2024-01-30T12:53:29;14.61;63.23
74178;DHT22;62540;48.456;-4.456;2024-01-30T12:55:55;14.66;62.65
74178;DHT22;62540;48.456;-4.456;2024-01-30T12:58:20;14.68;62.69
74178;DHT22;62540;48.456;-4.456;2024-01-30T13:00:45;14.73;62.43
74178;DHT22;62540;48.456;-4.456;2024-01-30T13:03:12;14.73;61.63
74178;DHT22;62540;48.456;-4.456;2024-01-30T13:05:37;14.70;62.50
74178;DHT22;62540;48.456;-4.456;2024-01-30T13:08:03;14.71;60.95
74178;DHT22;62540;48.456;-4.456;2024-01-30T13:10:28;14.60;59.75
74178;DHT22;62540;48.456;-4.456;2024-01-30T13:12:54;14.56;62.14
74178;DHT22;62540;48.456;-4.456;2024-01-30T13:15:19;14.61;61.56
74178;DHT22;62540;48.456;-4.456;2024-01-30T13:17:45;14.67;61.46
74178;DHT22;62540;48.456;-4.456;2024-01-30T13:20:13;14.64;61.10
74178;DHT22;62540;48.456;-4.456;2024-01-30T13:22:43;14.64;60.80
74178;DHT22;62540;48.456;-4.456;2024-01-30T13:25:08;14.61;59.50
74178;DHT22;62540;48.456;-4.456;2024-01-30T13:27:34;14.60;61.17
74178;DHT22;62540;48.456;-4.456;2024-01-30T13:29:59;14.53;60.46
74178;DHT22;62540;48.456;-4.456;2024-01-30T13:32:24;14.48;59.42
74178;DHT22;62540;48.456;-4.456;2024-01-30T13:34:50;14.50;61.29
74178;DHT22;62540;48.456;-4.456;2024-01-30T13:37:15;14.54;58.43
74178;DHT22;62540;48.456;-4.456;2024-01-30T13:39:40;14.53;60.37
74178;DHT22;62540;48.456;-4.456;2024-01-30T13:42:06;14.50;60.08
74178;DHT22;62540;48.456;-4.456;2024-01-30T13:44:31;14.48;59.75
74178;DHT22;62540;48.456;-4.456;2024-01-30T13:46:57;14.43;60.24
74178;DHT22;62540;48.456;-4.456;2024-01-30T13:49:22;14.48;60.33
74178;DHT22;62540;48.456;-4.456;2024-01-30T13:51:48;14.43;59.89
74178;DHT22;62540;48.456;-4.456;2024-01-30T13:54:13;14.36;60.79
74178;DHT22;62540;48.456;-4.456;2024-01-30T13:56:40;14.33;60.51
74178;DHT22;62540;48.456;-4.456;2024-01-30T13:59:06;14.33;60.27
74178;DHT22;62540;48.456;-4.456;2024-01-30T14:01:32;14.34;60.32
74178;DHT22;62540;48.456;-4.456;2024-01-30T14:03:57;14.40;60.38
74178;DHT22;62540;48.456;-4.456;2024-01-30T14:06:23;14.39;60.21
74178;DHT22;62540;48.456;-4.456;2024-01-30T14:08:48;14.34;60.41
74178;DHT22;62540;48.456;-4.456;2024-01-30T14:11:14;14.32;59.93
74178;DHT22;62540;48.456;-4.456;2024-01-30T14:13:39;14.29;59.95
74178;DHT22;62540;48.456;-4.456;2024-01-30T14:16:05;14.20;59.47
74178;DHT22;62540;48.456;-4.456;2024-01-30T14:18:30;14.23;60.37
74178;DHT22;62540;48.456;-4.456;2024-01-30T14:20:56;14.27;60.34
74178;DHT22;62540;48.456;-4.456;2024-01-30T14:23:21;14.29;59.72
74178;DHT22;62540;48.456;-4.456;2024-01-30T14:25:47;14.22;60.00
74178;DHT22;62540;48.456;-4.456;2024-01-30T14:28:12;14.16;59.38
74178;DHT22;62540;48.456;-4.456;2024-01-30T14:30:37;14.04;58.63
74178;DHT22;62540;48.456;-4.456;2024-01-30T14:33:03;13.88;58.90
74178;DHT22;62540;48.456;-4.456;2024-01-30T14:35:29;13.75;58.98
74178;DHT22;62540;48.456;-4.456;2024-01-30T14:37:54;13.64;58.79
74178;DHT22;62540;48.456;-4.456;2024-01-30T14:40:20;13.51;58.99
74178;DHT22;62540;48.456;-4.456;2024-01-30T14:42:45;13.39;59.59
74178;DHT22;62540;48.456;-4.456;2024-01-30T14:45:11;13.26;60.38
74178;DHT22;62540;48.456;-4.456;2024-01-30T14:47:37;13.17;60.58
74178;DHT22;62540;48.456;-4.456;2024-01-30T14:50:03;13.10;60.89
74178;DHT22;62540;48.456;-4.456;2024-01-30T14:52:30;12.97;61.24
74178;DHT22;62540;48.456;-4.456;2024-01-30T14:54:56;12.99;61.78
74178;DHT22;62540;48.456;-4.456;2024-01-30T14:57:23;12.99;61.66
74178;DHT22;62540;48.456;-4.456;2024-01-30T14:59:49;12.99;61.49
74178;DHT22;62540;48.456;-4.456;2024-01-30T15:02:14;12.95;61.53
74178;DHT22;62540;48.456;-4.456;2024-01-30T15:04:40;12.96;61.83
74178;DHT22;62540;48.456;-4.456;2024-01-30T15:07:05;12.90;61.65
74178;DHT22;62540;48.456;-4.456;2024-01-30T15:09:31;12.83;61.75
74178;DHT22;62540;48.456;-4.456;2024-01-30T15:11:56;12.76;61.57
74178;DHT22;62540;48.456;-4.456;2024-01-30T15:14:23;12.71;61.93